sensor_id;sensor_type;location;lat;lon;timestamp;P1;durP1;ratioP1;P2;durP2;ratioP2
73168;SDS011;61379;59.732;30.468;2022-11-03T00:00:02;12.25;;;10.85;;
73168;SDS011;61379;59.732;30.468;2022-11-03T00:02:30;11.35;;;10.10;;
73168;SDS011;61379;59.732;30.468;2022-11-03T00:04:56;12.07;;;9.45;;
73168;SDS011;61379;59.732;30.468;2022-11-03T00:07:43;12.65;;;9.73;;
73168;SDS011;61379;59.732;30.468;2022-11-03T00:10:09;11.05;;;9.93;;
73168;SDS011;61379;59.732;30.468;2022-11-03T00:12:37;9.75;;;8.75;;
73168;SDS011;61379;59.732;30.468;2022-11-03T00:15:06;10.05;;;9.07;;
73168;SDS011;61379;59.732;30.468;2022-11-03T00:17:33;9.70;;;8.80;;
73168;SDS011;61379;59.732;30.468;2022-11-03T00:19:59;10.23;;;8.93;;
73168;SDS011;61379;59.732;30.468;2022-11-03T00:22:26;10.57;;;9.07;;
73168;SDS011;61379;59.732;30.468;2022-11-03T00:24:54;12.00;;;9.88;;
73168;SDS011;61379;59.732;30.468;2022-11-03T00:27:20;11.40;;;9.48;;
73168;SDS011;61379;59.732;30.468;2022-11-03T00:29:47;12.27;;;10.82;;
73168;SDS011;61379;59.732;30.468;2022-11-03T00:32:15;12.80;;;10.35;;
73168;SDS011;61379;59.732;30.468;2022-11-03T00:34:42;14.20;;;10.48;;
73168;SDS011;61379;59.732;30.468;2022-11-03T00:37:08;14.82;;;10.70;;
73168;SDS011;61379;59.732;30.468;2022-11-03T00:39:35;16.08;;;11.32;;
73168;SDS011;61379;59.732;30.468;2022-11-03T00:42:02;17.13;;;12.30;;
73168;SDS011;61379;59.732;30.468;2022-11-03T00:44:28;16.15;;;11.43;;
73168;SDS011;61379;59.732;30.468;2022-11-03T00:46:55;19.38;;;12.63;;
73168;SDS011;61379;59.732;30.468;2022-11-03T00:49:23;14.82;;;11.15;;
73168;SDS011;61379;59.732;30.468;2022-11-03T00:51:50;12.85;;;10.13;;
73168;SDS011;61379;59.732;30.468;2022-11-03T00:54:16;11.75;;;10.52;;
73168;SDS011;61379;59.732;30.468;2022-11-03T00:56:43;10.93;;;9.77;;
73168;SDS011;61379;59.732;30.468;2022-11-03T00:59:10;10.88;;;9.57;;
73168;SDS011;61379;59.732;30.468;2022-11-03T01:01:37;10.82;;;9.65;;
73168;SDS011;61379;59.732;30.468;2022-11-03T01:04:04;13.77;;;10.90;;
73168;SDS011;61379;59.732;30.468;2022-11-03T01:06:51;12.65;;;10.10;;
73168;SDS011;61379;59.732;30.468;2022-11-03T01:09:19;13.25;;;10.20;;
73168;SDS011;61379;59.732;30.468;2022-11-03T01:11:49;15.55;;;10.05;;
73168;SDS011;61379;59.732;30.468;2022-11-03T01:14:15;13.40;;;10.60;;
73168;SDS011;61379;59.732;30.468;2022-11-03T01:16:42;12.25;;;10.00;;
73168;SDS011;61379;59.732;30.468;2022-11-03T01:19:09;14.82;;;10.93;;
73168;SDS011;61379;59.732;30.468;2022-11-03T01:21:35;13.52;;;10.35;;
73168;SDS011;61379;59.732;30.468;2022-11-03T01:24:03;15.07;;;10.02;;
73168;SDS011;61379;59.732;30.468;2022-11-03T01:26:30;10.95;;;9.60;;
73168;SDS011;61379;59.732;30.468;2022-11-03T01:28:58;13.07;;;9.52;;
73168;SDS011;61379;59.732;30.468;2022-11-03T01:31:25;10.57;;;9.45;;
73168;SDS011;61379;59.732;30.468;2022-11-03T01:33:52;10.73;;;9.63;;
73168;SDS011;61379;59.732;30.468;2022-11-03T01:36:20;11.07;;;9.95;;
73168;SDS011;61379;59.732;30.468;2022-11-03T01:38:46;10.98;;;9.63;;
73168;SDS011;61379;59.732;30.468;2022-11-03T01:41:15;11.50;;;9.93;;
73168;SDS011;61379;59.732;30.468;2022-11-03T01:43:42;11.13;;;10.02;;
73168;SDS011;61379;59.732;30.468;2022-11-03T01:46:12;10.95;;;9.23;;
73168;SDS011;61379;59.732;30.468;2022-11-03T01:48:41;10.93;;;9.25;;
73168;SDS011;61379;59.732;30.468;2022-11-03T01:51:10;12.65;;;9.77;;
73168;SDS011;61379;59.732;30.468;2022-11-03T01:53:38;10.90;;;9.55;;
73168;SDS011;61379;59.732;30.468;2022-11-03T01:56:07;13.88;;;10.63;;
73168;SDS011;61379;59.732;30.468;2022-11-03T01:58:35;12.23;;;10.82;;
73168;SDS011;61379;59.732;30.468;2022-11-03T02:01:04;11.20;;;9.85;;
73168;SDS011;61379;59.732;30.468;2022-11-03T02:03:32;13.82;;;10.60;;
73168;SDS011;61379;59.732;30.468;2022-11-03T02:05:59;13.05;;;10.90;;
73168;SDS011;61379;59.732;30.468;2022-11-03T02:08:29;13.15;;;10.30;;
73168;SDS011;61379;59.732;30.468;2022-11-03T02:10:56;14.57;;;10.32;;
73168;SDS011;61379;59.732;30.468;2022-11-03T02:13:23;13.00;;;10.32;;
73168;SDS011;61379;59.732;30.468;2022-11-03T02:18:38;15.40;;;11.05;;
73168;SDS011;61379;59.732;30.468;2022-11-03T02:21:07;13.38;;;10.63;;
73168;SDS011;61379;59.732;30.468;2022-11-03T02:23:37;14.60;;;10.45;;
73168;SDS011;61379;59.732;30.468;2022-11-03T02:26:07;13.52;;;10.35;;
73168;SDS011;61379;59.732;30.468;2022-11-03T02:28:35;13.13;;;10.20;;
73168;SDS011;61379;59.732;30.468;2022-11-03T02:31:04;19.88;;;13.35;;
73168;SDS011;61379;59.732;30.468;2022-11-03T02:33:39;16.38;;;12.35;;
73168;SDS011;61379;59.732;30.468;2022-11-03T02:36:09;17.15;;;11.93;;
73168;SDS011;61379;59.732;30.468;2022-11-03T02:38:38;16.85;;;11.45;;
73168;SDS011;61379;59.732;30.468;2022-11-03T02:41:09;15.90;;;11.85;;
73168;SDS011;61379;59.732;30.468;2022-11-03T02:43:37;15.20;;;12.35;;
73168;SDS011;61379;59.732;30.468;2022-11-03T02:46:05;16.92;;;12.98;;
73168;SDS011;61379;59.732;30.468;2022-11-03T02:48:31;19.98;;;13.32;;
73168;SDS011;61379;59.732;30.468;2022-11-03T02:50:58;15.75;;;12.07;;
73168;SDS011;61379;59.732;30.468;2022-11-03T02:53:25;18.15;;;12.52;;
73168;SDS011;61379;59.732;30.468;2022-11-03T02:55:54;17.35;;;12.95;;
73168;SDS011;61379;59.732;30.468;2022-11-03T02:58:25;19.98;;;12.90;;
73168;SDS011;61379;59.732;30.468;2022-11-03T03:00:54;21.52;;;13.35;;
73168;SDS011;61379;59.732;30.468;2022-11-03T03:03:23;22.52;;;13.52;;
73168;SDS011;61379;59.732;30.468;2022-11-03T03:05:53;22.52;;;13.40;;
73168;SDS011;61379;59.732;30.468;2022-11-03T03:08:22;19.73;;;14.15;;
73168;SDS011;61379;59.732;30.468;2022-11-03T03:10:50;23.83;;;14.00;;
73168;SDS011;61379;59.732;30.468;2022-11-03T03:13:18;22.30;;;14.85;;
73168;SDS011;61379;59.732;30.468;2022-11-03T03:15:50;22.65;;;13.98;;
73168;SDS011;61379;59.732;30.468;2022-11-03T03:18:21;22.50;;;13.88;;
73168;SDS011;61379;59.732;30.468;2022-11-03T03:20:54;22.00;;;13.85;;
73168;SDS011;61379;59.732;30.468;2022-11-03T03:23:21;20.45;;;13.93;;
73168;SDS011;61379;59.732;30.468;2022-11-03T03:25:49;21.10;;;13.27;;
73168;SDS011;61379;59.732;30.468;2022-11-03T03:28:19;19.55;;;12.57;;
73168;SDS011;61379;59.732;30.468;2022-11-03T03:30:48;17.55;;;11.73;;
73168;SDS011;61379;59.732;30.468;2022-11-03T03:35:43;18.10;;;12.13;;
73168;SDS011;61379;59.732;30.468;2022-11-03T03:38:12;16.25;;;11.65;;
73168;SDS011;61379;59.732;30.468;2022-11-03T03:40:40;16.95;;;12.70;;
73168;SDS011;61379;59.732;30.468;2022-11-03T03:43:08;17.33;;;13.30;;
73168;SDS011;61379;59.732;30.468;2022-11-03T03:45:37;19.83;;;12.30;;
73168;SDS011;61379;59.732;30.468;2022-11-03T03:48:05;20.63;;;13.20;;
73168;SDS011;61379;59.732;30.468;2022-11-03T03:50:33;18.33;;;12.82;;
73168;SDS011;61379;59.732;30.468;2022-11-03T03:53:01;18.30;;;12.82;;
73168;SDS011;61379;59.732;30.468;2022-11-03T03:55:30;21.20;;;13.27;;
73168;SDS011;61379;59.732;30.468;2022-11-03T03:57:59;21.08;;;12.40;;
73168;SDS011;61379;59.732;30.468;2022-11-03T04:00:25;18.35;;;12.75;;
73168;SDS011;61379;59.732;30.468;2022-11-03T04:02:53;18.40;;;12.02;;
73168;SDS011;61379;59.732;30.468;2022-11-03T04:05:22;16.48;;;11.90;;
73168;SDS011;61379;59.732;30.468;2022-11-03T04:07:49;17.85;;;11.65;;
73168;SDS011;61379;59.732;30.468;2022-11-03T04:10:17;19.55;;;13.32;;
73168;SDS011;61379;59.732;30.468;2022-11-03T04:12:44;20.42;;;12.80;;
73168;SDS011;61379;59.732;30.468;2022-11-03T04:15:28;15.50;;;11.23;;
73168;SDS011;61379;59.732;30.468;2022-11-03T04:18:21;19.10;;;11.30;;
73168;SDS011;61379;59.732;30.468;2022-11-03T04:21:07;16.20;;;12.68;;
73168;SDS011;61379;59.732;30.468;2022-11-03T04:23:53;17.60;;;11.82;;
73168;SDS011;61379;59.732;30.468;2022-11-03T04:26:20;18.55;;;12.10;;
73168;SDS011;61379;59.732;30.468;2022-11-03T04:28:48;13.57;;;10.73;;
73168;SDS011;61379;59.732;30.468;2022-11-03T04:31:16;20.20;;;12.98;;
73168;SDS011;61379;59.732;30.468;2022-11-03T04:33:43;15.52;;;11.35;;
73168;SDS011;61379;59.732;30.468;2022-11-03T04:36:12;17.30;;;12.50;;
73168;SDS011;61379;59.732;30.468;2022-11-03T04:38:40;17.55;;;12.32;;
73168;SDS011;61379;59.732;30.468;2022-11-03T04:41:11;17.55;;;11.52;;
73168;SDS011;61379;59.732;30.468;2022-11-03T04:43:38;19.60;;;12.18;;
73168;SDS011;61379;59.732;30.468;2022-11-03T04:46:07;18.35;;;13.30;;
73168;SDS011;61379;59.732;30.468;2022-11-03T04:51:01;18.02;;;13.45;;
73168;SDS011;61379;59.732;30.468;2022-11-03T04:53:36;23.27;;;13.57;;
73168;SDS011;61379;59.732;30.468;2022-11-03T04:56:07;22.00;;;13.73;;
73168;SDS011;61379;59.732;30.468;2022-11-03T05:01:05;17.02;;;13.30;;
73168;SDS011;61379;59.732;30.468;2022-11-03T05:03:35;20.90;;;13.98;;
73168;SDS011;61379;59.732;30.468;2022-11-03T05:06:08;17.08;;;12.38;;
73168;SDS011;61379;59.732;30.468;2022-11-03T05:08:36;17.42;;;13.45;;
73168;SDS011;61379;59.732;30.468;2022-11-03T05:11:07;13.82;;;12.25;;
73168;SDS011;61379;59.732;30.468;2022-11-03T05:13:37;17.25;;;11.65;;
73168;SDS011;61379;59.732;30.468;2022-11-03T05:16:04;16.42;;;11.55;;
73168;SDS011;61379;59.732;30.468;2022-11-03T05:18:32;13.93;;;11.35;;
73168;SDS011;61379;59.732;30.468;2022-11-03T05:21:01;14.55;;;11.32;;
73168;SDS011;61379;59.732;30.468;2022-11-03T05:23:29;12.52;;;11.23;;
73168;SDS011;61379;59.732;30.468;2022-11-03T05:25:58;11.80;;;10.70;;
73168;SDS011;61379;59.732;30.468;2022-11-03T05:28:25;11.45;;;10.25;;
73168;SDS011;61379;59.732;30.468;2022-11-03T05:30:52;11.70;;;10.60;;
73168;SDS011;61379;59.732;30.468;2022-11-03T05:33:20;12.05;;;10.93;;
73168;SDS011;61379;59.732;30.468;2022-11-03T05:35:47;12.05;;;10.88;;
73168;SDS011;61379;59.732;30.468;2022-11-03T05:38:14;13.20;;;11.82;;
73168;SDS011;61379;59.732;30.468;2022-11-03T05:40:42;13.43;;;10.98;;
73168;SDS011;61379;59.732;30.468;2022-11-03T05:43:11;12.15;;;10.88;;
73168;SDS011;61379;59.732;30.468;2022-11-03T05:45:38;13.43;;;12.00;;
73168;SDS011;61379;59.732;30.468;2022-11-03T05:48:10;14.52;;;12.52;;
73168;SDS011;61379;59.732;30.468;2022-11-03T05:50:38;16.17;;;12.85;;
73168;SDS011;61379;59.732;30.468;2022-11-03T05:53:11;14.48;;;12.70;;
73168;SDS011;61379;59.732;30.468;2022-11-03T05:55:42;11.73;;;10.57;;
73168;SDS011;61379;59.732;30.468;2022-11-03T05:58:14;12.95;;;11.13;;
73168;SDS011;61379;59.732;30.468;2022-11-03T06:00:46;13.35;;;11.95;;
73168;SDS011;61379;59.732;30.468;2022-11-03T06:03:13;16.33;;;13.13;;
73168;SDS011;61379;59.732;30.468;2022-11-03T06:05:40;15.27;;;12.43;;
73168;SDS011;61379;59.732;30.468;2022-11-03T06:08:10;15.27;;;12.18;;
73168;SDS011;61379;59.732;30.468;2022-11-03T06:10:39;16.45;;;12.48;;
73168;SDS011;61379;59.732;30.468;2022-11-03T06:13:10;17.13;;;13.35;;
73168;SDS011;61379;59.732;30.468;2022-11-03T06:15:41;17.65;;;13.32;;
73168;SDS011;61379;59.732;30.468;2022-11-03T06:18:09;20.77;;;13.40;;
73168;SDS011;61379;59.732;30.468;2022-11-03T06:20:38;21.67;;;13.52;;
73168;SDS011;61379;59.732;30.468;2022-11-03T06:23:07;20.30;;;14.73;;
73168;SDS011;61379;59.732;30.468;2022-11-03T06:28:02;22.45;;;14.07;;
73168;SDS011;61379;59.732;30.468;2022-11-03T06:30:30;19.60;;;14.40;;
73168;SDS011;61379;59.732;30.468;2022-11-03T06:32:59;20.67;;;14.10;;
73168;SDS011;61379;59.732;30.468;2022-11-03T06:35:27;18.50;;;13.80;;
73168;SDS011;61379;59.732;30.468;2022-11-03T06:37:54;18.13;;;13.50;;
73168;SDS011;61379;59.732;30.468;2022-11-03T06:40:33;18.88;;;13.02;;
73168;SDS011;61379;59.732;30.468;2022-11-03T06:43:08;15.82;;;12.18;;
73168;SDS011;61379;59.732;30.468;2022-11-03T06:45:35;23.20;;;14.48;;
73168;SDS011;61379;59.732;30.468;2022-11-03T06:48:04;19.05;;;14.15;;
73168;SDS011;61379;59.732;30.468;2022-11-03T06:50:33;20.77;;;13.95;;
73168;SDS011;61379;59.732;30.468;2022-11-03T06:53:00;17.67;;;12.60;;
73168;SDS011;61379;59.732;30.468;2022-11-03T06:55:29;18.55;;;13.10;;
73168;SDS011;61379;59.732;30.468;2022-11-03T06:57:56;15.63;;;12.57;;
73168;SDS011;61379;59.732;30.468;2022-11-03T07:00:25;17.77;;;12.57;;
73168;SDS011;61379;59.732;30.468;2022-11-03T07:02:54;17.08;;;12.93;;
73168;SDS011;61379;59.732;30.468;2022-11-03T07:05:23;17.25;;;13.70;;
73168;SDS011;61379;59.732;30.468;2022-11-03T07:07:51;20.77;;;13.75;;
73168;SDS011;61379;59.732;30.468;2022-11-03T07:10:18;19.45;;;12.50;;
73168;SDS011;61379;59.732;30.468;2022-11-03T07:12:45;19.33;;;13.20;;
73168;SDS011;61379;59.732;30.468;2022-11-03T07:15:15;20.38;;;14.05;;
73168;SDS011;61379;59.732;30.468;2022-11-03T07:17:45;18.83;;;13.18;;
73168;SDS011;61379;59.732;30.468;2022-11-03T07:20:13;19.05;;;12.80;;
73168;SDS011;61379;59.732;30.468;2022-11-03T07:22:43;16.02;;;13.23;;
73168;SDS011;61379;59.732;30.468;2022-11-03T07:25:12;18.17;;;12.82;;
73168;SDS011;61379;59.732;30.468;2022-11-03T07:30:11;15.80;;;12.57;;
73168;SDS011;61379;59.732;30.468;2022-11-03T07:32:39;18.30;;;13.30;;
73168;SDS011;61379;59.732;30.468;2022-11-03T07:35:10;14.57;;;12.10;;
73168;SDS011;61379;59.732;30.468;2022-11-03T07:37:42;14.55;;;12.65;;
73168;SDS011;61379;59.732;30.468;2022-11-03T07:40:11;14.13;;;12.57;;
73168;SDS011;61379;59.732;30.468;2022-11-03T07:42:38;14.18;;;11.80;;
73168;SDS011;61379;59.732;30.468;2022-11-03T07:45:07;16.50;;;12.77;;
73168;SDS011;61379;59.732;30.468;2022-11-03T07:47:54;16.50;;;13.27;;
73168;SDS011;61379;59.732;30.468;2022-11-03T07:50:21;15.95;;;12.40;;
73168;SDS011;61379;59.732;30.468;2022-11-03T07:52:49;13.93;;;11.35;;
73168;SDS011;61379;59.732;30.468;2022-11-03T07:55:16;15.55;;;12.07;;
73168;SDS011;61379;59.732;30.468;2022-11-03T07:57:43;14.82;;;11.70;;
73168;SDS011;61379;59.732;30.468;2022-11-03T08:00:10;16.58;;;12.75;;
73168;SDS011;61379;59.732;30.468;2022-11-03T08:02:46;18.20;;;12.95;;
73168;SDS011;61379;59.732;30.468;2022-11-03T08:05:13;17.30;;;12.85;;
73168;SDS011;61379;59.732;30.468;2022-11-03T08:07:40;16.92;;;13.10;;
73168;SDS011;61379;59.732;30.468;2022-11-03T08:10:09;15.35;;;12.52;;
73168;SDS011;61379;59.732;30.468;2022-11-03T08:12:35;16.75;;;13.25;;
73168;SDS011;61379;59.732;30.468;2022-11-03T08:15:02;14.95;;;12.73;;
73168;SDS011;61379;59.732;30.468;2022-11-03T08:17:29;15.15;;;12.75;;
73168;SDS011;61379;59.732;30.468;2022-11-03T08:19:56;15.25;;;12.98;;
73168;SDS011;61379;59.732;30.468;2022-11-03T08:22:22;13.48;;;12.05;;
73168;SDS011;61379;59.732;30.468;2022-11-03T08:24:50;16.48;;;13.30;;
73168;SDS011;61379;59.732;30.468;2022-11-03T08:27:18;19.75;;;14.48;;
73168;SDS011;61379;59.732;30.468;2022-11-03T08:29:44;16.85;;;12.77;;
73168;SDS011;61379;59.732;30.468;2022-11-03T08:32:11;15.32;;;12.23;;
73168;SDS011;61379;59.732;30.468;2022-11-03T08:34:38;15.50;;;13.15;;
73168;SDS011;61379;59.732;30.468;2022-11-03T08:37:04;14.57;;;11.88;;
73168;SDS011;61379;59.732;30.468;2022-11-03T08:39:31;12.25;;;10.95;;
73168;SDS011;61379;59.732;30.468;2022-11-03T08:42:00;13.27;;;11.75;;
73168;SDS011;61379;59.732;30.468;2022-11-03T08:44:28;13.05;;;10.55;;
73168;SDS011;61379;59.732;30.468;2022-11-03T08:46:54;12.00;;;10.45;;
73168;SDS011;61379;59.732;30.468;2022-11-03T08:49:21;11.90;;;10.60;;
73168;SDS011;61379;59.732;30.468;2022-11-03T08:51:48;12.27;;;11.00;;
73168;SDS011;61379;59.732;30.468;2022-11-03T08:54:15;12.02;;;10.80;;
73168;SDS011;61379;59.732;30.468;2022-11-03T08:56:45;13.50;;;10.43;;
73168;SDS011;61379;59.732;30.468;2022-11-03T08:59:13;12.20;;;10.07;;
73168;SDS011;61379;59.732;30.468;2022-11-03T09:01:45;15.82;;;11.13;;
73168;SDS011;61379;59.732;30.468;2022-11-03T09:04:11;16.50;;;11.57;;
73168;SDS011;61379;59.732;30.468;2022-11-03T09:06:38;13.40;;;11.50;;
73168;SDS011;61379;59.732;30.468;2022-11-03T09:09:05;18.40;;;11.77;;
73168;SDS011;61379;59.732;30.468;2022-11-03T09:11:33;15.77;;;12.25;;
73168;SDS011;61379;59.732;30.468;2022-11-03T09:14:01;14.32;;;11.75;;
73168;SDS011;61379;59.732;30.468;2022-11-03T09:16:29;17.80;;;11.98;;
73168;SDS011;61379;59.732;30.468;2022-11-03T09:18:58;14.85;;;12.07;;
73168;SDS011;61379;59.732;30.468;2022-11-03T09:21:28;16.58;;;12.30;;
73168;SDS011;61379;59.732;30.468;2022-11-03T09:23:54;17.60;;;12.20;;
73168;SDS011;61379;59.732;30.468;2022-11-03T09:26:25;15.07;;;12.55;;
73168;SDS011;61379;59.732;30.468;2022-11-03T09:28:53;16.02;;;12.52;;
73168;SDS011;61379;59.732;30.468;2022-11-03T09:31:21;15.23;;;11.85;;
73168;SDS011;61379;59.732;30.468;2022-11-03T09:33:50;22.75;;;13.80;;
73168;SDS011;61379;59.732;30.468;2022-11-03T09:36:20;19.92;;;13.32;;
73168;SDS011;61379;59.732;30.468;2022-11-03T09:38:47;17.58;;;12.90;;
73168;SDS011;61379;59.732;30.468;2022-11-03T09:41:14;14.10;;;12.40;;
73168;SDS011;61379;59.732;30.468;2022-11-03T09:43:43;13.57;;;11.65;;
73168;SDS011;61379;59.732;30.468;2022-11-03T09:46:13;16.10;;;11.48;;
73168;SDS011;61379;59.732;30.468;2022-11-03T09:48:42;13.10;;;11.80;;
73168;SDS011;61379;59.732;30.468;2022-11-03T09:51:09;14.00;;;11.57;;
73168;SDS011;61379;59.732;30.468;2022-11-03T09:53:41;13.23;;;11.82;;
73168;SDS011;61379;59.732;30.468;2022-11-03T09:56:09;16.63;;;12.88;;
73168;SDS011;61379;59.732;30.468;2022-11-03T09:58:36;17.70;;;11.85;;
73168;SDS011;61379;59.732;30.468;2022-11-03T10:01:04;14.07;;;12.00;;
73168;SDS011;61379;59.732;30.468;2022-11-03T10:03:35;13.13;;;11.70;;
73168;SDS011;61379;59.732;30.468;2022-11-03T10:06:07;14.82;;;12.00;;
73168;SDS011;61379;59.732;30.468;2022-11-03T10:08:36;21.23;;;13.85;;
73168;SDS011;61379;59.732;30.468;2022-11-03T10:11:07;26.33;;;14.68;;
73168;SDS011;61379;59.732;30.468;2022-11-03T10:13:36;18.65;;;13.57;;
73168;SDS011;61379;59.732;30.468;2022-11-03T10:16:04;19.65;;;13.88;;
73168;SDS011;61379;59.732;30.468;2022-11-03T10:18:32;16.58;;;12.77;;
73168;SDS011;61379;59.732;30.468;2022-11-03T10:21:03;18.50;;;12.45;;
73168;SDS011;61379;59.732;30.468;2022-11-03T10:23:30;23.05;;;15.40;;
73168;SDS011;61379;59.732;30.468;2022-11-03T10:25:58;23.83;;;15.13;;
73168;SDS011;61379;59.732;30.468;2022-11-03T10:28:31;20.17;;;14.75;;
73168;SDS011;61379;59.732;30.468;2022-11-03T10:30:58;18.67;;;14.20;;
73168;SDS011;61379;59.732;30.468;2022-11-03T10:33:26;24.17;;;14.27;;
73168;SDS011;61379;59.732;30.468;2022-11-03T10:35:55;22.80;;;14.20;;
73168;SDS011;61379;59.732;30.468;2022-11-03T10:38:26;20.45;;;13.63;;
73168;SDS011;61379;59.732;30.468;2022-11-03T10:40:53;19.00;;;13.68;;
73168;SDS011;61379;59.732;30.468;2022-11-03T10:43:20;16.88;;;12.68;;
73168;SDS011;61379;59.732;30.468;2022-11-03T10:45:48;16.63;;;13.23;;
73168;SDS011;61379;59.732;30.468;2022-11-03T10:48:19;16.40;;;13.02;;
73168;SDS011;61379;59.732;30.468;2022-11-03T10:50:46;19.35;;;13.13;;
73168;SDS011;61379;59.732;30.468;2022-11-03T10:53:14;15.23;;;13.60;;
73168;SDS011;61379;59.732;30.468;2022-11-03T10:55:42;16.92;;;12.32;;
73168;SDS011;61379;59.732;30.468;2022-11-03T10:58:09;16.73;;;12.82;;
73168;SDS011;61379;59.732;30.468;2022-11-03T11:00:36;18.38;;;13.90;;
73168;SDS011;61379;59.732;30.468;2022-11-03T11:03:04;16.20;;;12.68;;
73168;SDS011;61379;59.732;30.468;2022-11-03T11:05:31;20.02;;;13.18;;
73168;SDS011;61379;59.732;30.468;2022-11-03T11:07:58;17.60;;;14.27;;
73168;SDS011;61379;59.732;30.468;2022-11-03T11:10:27;15.20;;;12.75;;
73168;SDS011;61379;59.732;30.468;2022-11-03T11:15:46;16.48;;;12.32;;
73168;SDS011;61379;59.732;30.468;2022-11-03T11:23:59;13.43;;;11.80;;
73168;SDS011;61379;59.732;30.468;2022-11-03T11:26:30;16.63;;;11.20;;
73168;SDS011;61379;59.732;30.468;2022-11-03T11:31:51;28.33;;;14.70;;
73168;SDS011;61379;59.732;30.468;2022-11-03T11:39:49;28.08;;;14.75;;
73168;SDS011;61379;59.732;30.468;2022-11-03T11:42:15;19.65;;;13.23;;
73168;SDS011;61379;59.732;30.468;2022-11-03T11:47:30;24.48;;;14.27;;
73168;SDS011;61379;59.732;30.468;2022-11-03T11:52:58;20.48;;;12.85;;
73168;SDS011;61379;59.732;30.468;2022-11-03T11:55:35;18.38;;;12.25;;
73168;SDS011;61379;59.732;30.468;2022-11-03T11:58:04;18.50;;;11.75;;
73168;SDS011;61379;59.732;30.468;2022-11-03T12:00:32;20.83;;;13.05;;
73168;SDS011;61379;59.732;30.468;2022-11-03T12:02:59;17.58;;;11.50;;
73168;SDS011;61379;59.732;30.468;2022-11-03T12:05:27;21.38;;;13.25;;
73168;SDS011;61379;59.732;30.468;2022-11-03T12:07:55;19.25;;;13.82;;
73168;SDS011;61379;59.732;30.468;2022-11-03T12:10:23;28.48;;;14.20;;
73168;SDS011;61379;59.732;30.468;2022-11-03T12:12:52;24.42;;;13.65;;
73168;SDS011;61379;59.732;30.468;2022-11-03T12:20:45;48.33;;;19.85;;
73168;SDS011;61379;59.732;30.468;2022-11-03T12:25:53;28.88;;;17.95;;
73168;SDS011;61379;59.732;30.468;2022-11-03T12:28:30;19.92;;;14.68;;
73168;SDS011;61379;59.732;30.468;2022-11-03T12:30:57;24.75;;;14.27;;
73168;SDS011;61379;59.732;30.468;2022-11-03T12:33:25;19.02;;;12.52;;
73168;SDS011;61379;59.732;30.468;2022-11-03T12:35:51;16.80;;;13.05;;
73168;SDS011;61379;59.732;30.468;2022-11-03T12:38:18;18.20;;;12.30;;
73168;SDS011;61379;59.732;30.468;2022-11-03T12:40:45;14.85;;;12.13;;
73168;SDS011;61379;59.732;30.468;2022-11-03T12:43:11;18.50;;;13.80;;
73168;SDS011;61379;59.732;30.468;2022-11-03T12:45:39;20.77;;;13.70;;
73168;SDS011;61379;59.732;30.468;2022-11-03T12:48:06;21.17;;;13.68;;
73168;SDS011;61379;59.732;30.468;2022-11-03T12:50:33;32.22;;;17.63;;
73168;SDS011;61379;59.732;30.468;2022-11-03T12:53:01;24.83;;;15.00;;
73168;SDS011;61379;59.732;30.468;2022-11-03T12:55:28;16.92;;;11.98;;
73168;SDS011;61379;59.732;30.468;2022-11-03T12:57:55;17.77;;;12.05;;
73168;SDS011;61379;59.732;30.468;2022-11-03T13:00:21;15.45;;;11.82;;
73168;SDS011;61379;59.732;30.468;2022-11-03T13:02:50;12.90;;;11.65;;
73168;SDS011;61379;59.732;30.468;2022-11-03T13:05:16;13.23;;;11.82;;
73168;SDS011;61379;59.732;30.468;2022-11-03T13:07:43;12.15;;;11.13;;
73168;SDS011;61379;59.732;30.468;2022-11-03T13:10:10;12.50;;;11.30;;
73168;SDS011;61379;59.732;30.468;2022-11-03T13:12:38;11.68;;;10.68;;
73168;SDS011;61379;59.732;30.468;2022-11-03T13:15:06;13.27;;;11.52;;
73168;SDS011;61379;59.732;30.468;2022-11-03T13:17:34;12.18;;;10.68;;
73168;SDS011;61379;59.732;30.468;2022-11-03T13:39:00;13.07;;;11.77;;
73168;SDS011;61379;59.732;30.468;2022-11-03T13:41:27;12.90;;;11.68;;
73168;SDS011;61379;59.732;30.468;2022-11-03T13:43:53;12.70;;;11.55;;
73168;SDS011;61379;59.732;30.468;2022-11-03T13:46:19;13.13;;;11.98;;
73168;SDS011;61379;59.732;30.468;2022-11-03T13:48:45;12.18;;;11.10;;
73168;SDS011;61379;59.732;30.468;2022-11-03T13:51:12;11.90;;;10.90;;
73168;SDS011;61379;59.732;30.468;2022-11-03T13:53:41;13.00;;;11.65;;
73168;SDS011;61379;59.732;30.468;2022-11-03T13:56:09;13.25;;;11.98;;
73168;SDS011;61379;59.732;30.468;2022-11-03T13:58:36;13.70;;;11.95;;
73168;SDS011;61379;59.732;30.468;2022-11-03T14:01:03;13.90;;;12.57;;
73168;SDS011;61379;59.732;30.468;2022-11-03T14:03:30;13.75;;;12.45;;
73168;SDS011;61379;59.732;30.468;2022-11-03T14:05:56;13.18;;;12.02;;
73168;SDS011;61379;59.732;30.468;2022-11-03T14:08:23;13.93;;;12.43;;
73168;SDS011;61379;59.732;30.468;2022-11-03T14:10:50;12.80;;;11.50;;
73168;SDS011;61379;59.732;30.468;2022-11-03T14:13:18;15.32;;;12.57;;
73168;SDS011;61379;59.732;30.468;2022-11-03T14:15:44;12.63;;;11.32;;
73168;SDS011;61379;59.732;30.468;2022-11-03T14:18:10;13.38;;;11.95;;
73168;SDS011;61379;59.732;30.468;2022-11-03T14:20:37;12.73;;;11.60;;
73168;SDS011;61379;59.732;30.468;2022-11-03T14:23:04;14.63;;;11.65;;
73168;SDS011;61379;59.732;30.468;2022-11-03T14:25:30;14.88;;;12.25;;
73168;SDS011;61379;59.732;30.468;2022-11-03T14:27:57;18.60;;;12.85;;
73168;SDS011;61379;59.732;30.468;2022-11-03T14:30:25;19.92;;;15.65;;
73168;SDS011;61379;59.732;30.468;2022-11-03T14:32:52;16.13;;;13.25;;
73168;SDS011;61379;59.732;30.468;2022-11-03T14:35:18;13.80;;;12.32;;
73168;SDS011;61379;59.732;30.468;2022-11-03T14:37:47;14.45;;;12.65;;
73168;SDS011;61379;59.732;30.468;2022-11-03T14:40:13;11.73;;;10.55;;
73168;SDS011;61379;59.732;30.468;2022-11-03T14:43:02;12.32;;;11.02;;
73168;SDS011;61379;59.732;30.468;2022-11-03T14:45:29;12.35;;;11.15;;
73168;SDS011;61379;59.732;30.468;2022-11-03T14:47:55;16.00;;;11.07;;
73168;SDS011;61379;59.732;30.468;2022-11-03T14:50:22;11.43;;;10.23;;
73168;SDS011;61379;59.732;30.468;2022-11-03T14:52:49;12.02;;;10.70;;
73168;SDS011;61379;59.732;30.468;2022-11-03T14:55:15;13.75;;;10.93;;
73168;SDS011;61379;59.732;30.468;2022-11-03T14:57:42;14.13;;;12.45;;
73168;SDS011;61379;59.732;30.468;2022-11-03T15:00:09;13.98;;;12.48;;
73168;SDS011;61379;59.732;30.468;2022-11-03T15:02:37;14.32;;;12.75;;
73168;SDS011;61379;59.732;30.468;2022-11-03T15:05:04;13.20;;;11.90;;
73168;SDS011;61379;59.732;30.468;2022-11-03T15:07:51;15.82;;;13.07;;
73168;SDS011;61379;59.732;30.468;2022-11-03T15:10:18;15.65;;;12.23;;
73168;SDS011;61379;59.732;30.468;2022-11-03T15:12:44;13.45;;;12.15;;
73168;SDS011;61379;59.732;30.468;2022-11-03T15:15:11;15.55;;;12.45;;
73168;SDS011;61379;59.732;30.468;2022-11-03T15:17:39;15.73;;;12.55;;
73168;SDS011;61379;59.732;30.468;2022-11-03T15:20:06;15.60;;;12.88;;
73168;SDS011;61379;59.732;30.468;2022-11-03T15:22:33;17.05;;;13.20;;